sensor_id;sensor_type;location;lat;lon;timestamp;P1;durP1;ratioP1;P2;durP2;ratioP2
32649;SDS011;19055;51.064;3.712;2022-08-19T00:01:39;46.55;;;35.75;;
32649;SDS011;19055;51.064;3.712;2022-08-19T00:04:08;47.33;;;33.72;;
32649;SDS011;19055;51.064;3.712;2022-08-19T00:06:37;47.45;;;35.35;;
32649;SDS011;19055;51.064;3.712;2022-08-19T00:09:05;47.90;;;35.42;;
32649;SDS011;19055;51.064;3.712;2022-08-19T00:11:32;47.88;;;35.95;;
32649;SDS011;19055;51.064;3.712;2022-08-19T00:14:03;49.72;;;36.53;;
32649;SDS011;19055;51.064;3.712;2022-08-19T00:16:31;51.58;;;37.50;;
32649;SDS011;19055;51.064;3.712;2022-08-19T00:18:57;53.67;;;38.85;;
32649;SDS011;19055;51.064;3.712;2022-08-19T00:21:23;56.00;;;40.05;;
32649;SDS011;19055;51.064;3.712;2022-08-19T00:23:51;58.00;;;39.90;;
32649;SDS011;19055;51.064;3.712;2022-08-19T00:26:16;54.97;;;40.45;;
32649;SDS011;19055;51.064;3.712;2022-08-19T00:28:42;52.50;;;37.15;;
32649;SDS011;19055;51.064;3.712;2022-08-19T00:31:08;54.17;;;37.90;;
32649;SDS011;19055;51.064;3.712;2022-08-19T00:33:34;50.38;;;34.85;;
32649;SDS011;19055;51.064;3.712;2022-08-19T00:36:01;51.15;;;35.50;;
32649;SDS011;19055;51.064;3.712;2022-08-19T00:38:29;55.45;;;37.72;;
32649;SDS011;19055;51.064;3.712;2022-08-19T00:40:55;57.35;;;39.67;;
32649;SDS011;19055;51.064;3.712;2022-08-19T00:43:23;51.03;;;37.10;;
32649;SDS011;19055;51.064;3.712;2022-08-19T00:45:50;54.17;;;36.88;;
32649;SDS011;19055;51.064;3.712;2022-08-19T00:48:17;51.33;;;36.30;;
32649;SDS011;19055;51.064;3.712;2022-08-19T00:50:43;52.03;;;35.75;;
32649;SDS011;19055;51.064;3.712;2022-08-19T00:53:13;49.10;;;35.63;;
32649;SDS011;19055;51.064;3.712;2022-08-19T00:55:44;54.13;;;35.15;;
32649;SDS011;19055;51.064;3.712;2022-08-19T00:58:13;51.45;;;35.53;;
32649;SDS011;19055;51.064;3.712;2022-08-19T01:00:42;45.67;;;32.92;;
32649;SDS011;19055;51.064;3.712;2022-08-19T01:03:09;49.05;;;33.42;;
32649;SDS011;19055;51.064;3.712;2022-08-19T01:05:37;46.92;;;31.15;;
32649;SDS011;19055;51.064;3.712;2022-08-19T01:08:06;45.72;;;32.65;;
32649;SDS011;19055;51.064;3.712;2022-08-19T01:10:35;47.95;;;32.15;;
32649;SDS011;19055;51.064;3.712;2022-08-19T01:13:07;43.95;;;29.70;;
32649;SDS011;19055;51.064;3.712;2022-08-19T01:15:35;44.70;;;30.30;;
32649;SDS011;19055;51.064;3.712;2022-08-19T01:18:08;41.55;;;29.35;;
32649;SDS011;19055;51.064;3.712;2022-08-19T01:20:37;50.00;;;29.40;;
32649;SDS011;19055;51.064;3.712;2022-08-19T01:23:04;38.15;;;28.00;;
32649;SDS011;19055;51.064;3.712;2022-08-19T01:25:31;41.25;;;29.30;;
32649;SDS011;19055;51.064;3.712;2022-08-19T01:33:29;42.45;;;29.38;;
32649;SDS011;19055;51.064;3.712;2022-08-19T01:36:12;43.22;;;29.83;;
32649;SDS011;19055;51.064;3.712;2022-08-19T01:38:41;44.13;;;29.85;;
32649;SDS011;19055;51.064;3.712;2022-08-19T01:41:09;42.25;;;30.20;;
32649;SDS011;19055;51.064;3.712;2022-08-19T01:43:36;43.05;;;30.23;;
32649;SDS011;19055;51.064;3.712;2022-08-19T01:46:02;38.22;;;28.85;;
32649;SDS011;19055;51.064;3.712;2022-08-19T01:48:32;41.45;;;29.00;;
32649;SDS011;19055;51.064;3.712;2022-08-19T01:51:02;43.20;;;29.30;;
32649;SDS011;19055;51.064;3.712;2022-08-19T01:53:28;45.83;;;28.55;;
32649;SDS011;19055;51.064;3.712;2022-08-19T01:55:55;41.65;;;27.95;;
32649;SDS011;19055;51.064;3.712;2022-08-19T01:58:23;45.15;;;26.77;;
32649;SDS011;19055;51.064;3.712;2022-08-19T02:00:56;41.80;;;28.00;;
32649;SDS011;19055;51.064;3.712;2022-08-19T02:03:22;40.13;;;25.70;;
32649;SDS011;19055;51.064;3.712;2022-08-19T02:05:53;39.88;;;26.15;;
32649;SDS011;19055;51.064;3.712;2022-08-19T02:08:25;39.03;;;26.58;;
32649;SDS011;19055;51.064;3.712;2022-08-19T02:10:52;37.63;;;24.95;;
32649;SDS011;19055;51.064;3.712;2022-08-19T02:13:18;37.90;;;24.77;;
32649;SDS011;19055;51.064;3.712;2022-08-19T02:15:44;38.67;;;24.02;;
32649;SDS011;19055;51.064;3.712;2022-08-19T02:18:10;36.72;;;24.60;;
32649;SDS011;19055;51.064;3.712;2022-08-19T02:20:37;36.15;;;25.05;;
32649;SDS011;19055;51.064;3.712;2022-08-19T02:23:04;37.53;;;24.20;;
32649;SDS011;19055;51.064;3.712;2022-08-19T02:25:30;35.65;;;24.05;;
32649;SDS011;19055;51.064;3.712;2022-08-19T02:27:56;37.53;;;24.45;;
32649;SDS011;19055;51.064;3.712;2022-08-19T02:30:22;32.10;;;23.20;;
32649;SDS011;19055;51.064;3.712;2022-08-19T02:32:49;38.38;;;24.50;;
32649;SDS011;19055;51.064;3.712;2022-08-19T02:35:16;39.03;;;23.77;;
32649;SDS011;19055;51.064;3.712;2022-08-19T02:37:42;41.60;;;23.48;;
32649;SDS011;19055;51.064;3.712;2022-08-19T02:40:28;41.25;;;24.35;;
32649;SDS011;19055;51.064;3.712;2022-08-19T02:42:58;40.70;;;23.05;;
32649;SDS011;19055;51.064;3.712;2022-08-19T02:45:25;42.30;;;23.90;;
32649;SDS011;19055;51.064;3.712;2022-08-19T02:47:50;36.88;;;23.50;;
32649;SDS011;19055;51.064;3.712;2022-08-19T02:50:16;41.70;;;23.90;;
32649;SDS011;19055;51.064;3.712;2022-08-19T02:52:42;40.53;;;25.25;;
32649;SDS011;19055;51.064;3.712;2022-08-19T02:55:08;39.20;;;25.30;;
32649;SDS011;19055;51.064;3.712;2022-08-19T02:57:34;38.33;;;24.85;;
32649;SDS011;19055;51.064;3.712;2022-08-19T03:00:00;39.22;;;24.80;;
32649;SDS011;19055;51.064;3.712;2022-08-19T03:02:31;45.47;;;25.20;;
32649;SDS011;19055;51.064;3.712;2022-08-19T03:04:56;40.42;;;25.60;;
32649;SDS011;19055;51.064;3.712;2022-08-19T03:07:22;38.15;;;25.30;;
32649;SDS011;19055;51.064;3.712;2022-08-19T03:09:48;40.90;;;25.48;;
32649;SDS011;19055;51.064;3.712;2022-08-19T03:12:14;37.72;;;24.20;;
32649;SDS011;19055;51.064;3.712;2022-08-19T03:14:39;40.03;;;25.13;;
32649;SDS011;19055;51.064;3.712;2022-08-19T03:17:06;35.97;;;24.50;;
32649;SDS011;19055;51.064;3.712;2022-08-19T03:19:33;37.80;;;24.55;;
32649;SDS011;19055;51.064;3.712;2022-08-19T03:21:58;36.40;;;23.75;;
32649;SDS011;19055;51.064;3.712;2022-08-19T03:24:25;34.60;;;22.88;;
32649;SDS011;19055;51.064;3.712;2022-08-19T03:26:52;43.97;;;24.13;;
32649;SDS011;19055;51.064;3.712;2022-08-19T03:29:22;37.45;;;22.45;;
32649;SDS011;19055;51.064;3.712;2022-08-19T03:31:48;38.33;;;22.38;;
32649;SDS011;19055;51.064;3.712;2022-08-19T03:34:36;33.33;;;22.13;;
32649;SDS011;19055;51.064;3.712;2022-08-19T03:37:07;35.50;;;19.38;;
32649;SDS011;19055;51.064;3.712;2022-08-19T03:39:35;34.03;;;19.77;;
32649;SDS011;19055;51.064;3.712;2022-08-19T03:42:02;32.97;;;20.02;;
32649;SDS011;19055;51.064;3.712;2022-08-19T03:44:29;32.58;;;20.50;;
32649;SDS011;19055;51.064;3.712;2022-08-19T03:46:58;30.20;;;19.52;;
32649;SDS011;19055;51.064;3.712;2022-08-19T03:49:25;29.15;;;19.70;;
32649;SDS011;19055;51.064;3.712;2022-08-19T03:51:54;29.52;;;20.33;;
32649;SDS011;19055;51.064;3.712;2022-08-19T03:54:21;33.63;;;20.15;;
32649;SDS011;19055;51.064;3.712;2022-08-19T03:56:49;34.83;;;18.98;;
32649;SDS011;19055;51.064;3.712;2022-08-19T03:59:18;33.60;;;19.60;;
32649;SDS011;19055;51.064;3.712;2022-08-19T04:01:52;29.10;;;18.35;;
32649;SDS011;19055;51.064;3.712;2022-08-19T04:04:18;25.60;;;18.05;;
32649;SDS011;19055;51.064;3.712;2022-08-19T04:06:44;32.08;;;19.08;;
32649;SDS011;19055;51.064;3.712;2022-08-19T04:09:12;28.50;;;16.95;;
32649;SDS011;19055;51.064;3.712;2022-08-19T04:11:43;28.95;;;17.85;;
32649;SDS011;19055;51.064;3.712;2022-08-19T04:14:12;28.58;;;18.70;;
32649;SDS011;19055;51.064;3.712;2022-08-19T04:16:40;26.60;;;17.17;;
32649;SDS011;19055;51.064;3.712;2022-08-19T04:19:08;27.17;;;17.45;;
32649;SDS011;19055;51.064;3.712;2022-08-19T04:21:34;36.22;;;19.27;;
32649;SDS011;19055;51.064;3.712;2022-08-19T04:24:00;30.02;;;17.42;;
32649;SDS011;19055;51.064;3.712;2022-08-19T04:26:27;27.65;;;17.38;;
32649;SDS011;19055;51.064;3.712;2022-08-19T04:29:02;32.10;;;18.27;;
32649;SDS011;19055;51.064;3.712;2022-08-19T04:31:31;31.60;;;17.60;;
32649;SDS011;19055;51.064;3.712;2022-08-19T04:34:01;27.90;;;17.85;;
32649;SDS011;19055;51.064;3.712;2022-08-19T04:36:32;28.35;;;17.92;;
32649;SDS011;19055;51.064;3.712;2022-08-19T04:39:00;26.90;;;15.90;;
32649;SDS011;19055;51.064;3.712;2022-08-19T04:41:29;23.38;;;17.55;;
32649;SDS011;19055;51.064;3.712;2022-08-19T04:44:14;29.73;;;17.67;;
32649;SDS011;19055;51.064;3.712;2022-08-19T04:46:43;32.80;;;17.40;;
32649;SDS011;19055;51.064;3.712;2022-08-19T04:49:10;27.98;;;17.77;;
32649;SDS011;19055;51.064;3.712;2022-08-19T04:51:36;29.67;;;17.23;;
32649;SDS011;19055;51.064;3.712;2022-08-19T04:54:05;25.83;;;17.27;;
32649;SDS011;19055;51.064;3.712;2022-08-19T04:56:30;33.65;;;16.40;;
32649;SDS011;19055;51.064;3.712;2022-08-19T04:58:56;28.25;;;16.70;;
32649;SDS011;19055;51.064;3.712;2022-08-19T05:01:26;31.60;;;17.48;;
32649;SDS011;19055;51.064;3.712;2022-08-19T05:03:55;26.50;;;16.65;;
32649;SDS011;19055;51.064;3.712;2022-08-19T05:06:22;28.17;;;16.45;;
32649;SDS011;19055;51.064;3.712;2022-08-19T05:08:49;23.52;;;16.05;;
32649;SDS011;19055;51.064;3.712;2022-08-19T05:11:20;26.30;;;15.88;;
32649;SDS011;19055;51.064;3.712;2022-08-19T05:13:49;37.13;;;16.80;;
32649;SDS011;19055;51.064;3.712;2022-08-19T05:16:16;23.30;;;16.13;;
32649;SDS011;19055;51.064;3.712;2022-08-19T05:18:43;34.28;;;16.60;;
32649;SDS011;19055;51.064;3.712;2022-08-19T05:21:28;24.85;;;14.45;;
32649;SDS011;19055;51.064;3.712;2022-08-19T05:24:13;21.00;;;13.80;;
32649;SDS011;19055;51.064;3.712;2022-08-19T05:26:41;30.15;;;15.07;;
32649;SDS011;19055;51.064;3.712;2022-08-19T05:29:10;25.38;;;15.30;;
32649;SDS011;19055;51.064;3.712;2022-08-19T05:31:37;24.55;;;15.85;;
32649;SDS011;19055;51.064;3.712;2022-08-19T05:34:04;26.92;;;15.00;;
32649;SDS011;19055;51.064;3.712;2022-08-19T05:36:33;26.98;;;15.05;;
32649;SDS011;19055;51.064;3.712;2022-08-19T05:39:01;23.92;;;14.00;;
32649;SDS011;19055;51.064;3.712;2022-08-19T05:41:27;25.50;;;15.38;;
32649;SDS011;19055;51.064;3.712;2022-08-19T05:43:57;22.52;;;14.32;;
32649;SDS011;19055;51.064;3.712;2022-08-19T05:46:25;22.38;;;14.52;;
32649;SDS011;19055;51.064;3.712;2022-08-19T05:48:51;28.60;;;15.45;;
32649;SDS011;19055;51.064;3.712;2022-08-19T05:51:18;29.80;;;15.98;;
32649;SDS011;19055;51.064;3.712;2022-08-19T05:53:44;23.73;;;14.40;;
32649;SDS011;19055;51.064;3.712;2022-08-19T05:56:14;29.92;;;16.52;;
32649;SDS011;19055;51.064;3.712;2022-08-19T05:58:41;29.95;;;15.73;;
32649;SDS011;19055;51.064;3.712;2022-08-19T06:01:10;33.78;;;16.83;;
32649;SDS011;19055;51.064;3.712;2022-08-19T06:03:37;26.98;;;16.40;;
32649;SDS011;19055;51.064;3.712;2022-08-19T06:06:05;28.20;;;17.00;;
32649;SDS011;19055;51.064;3.712;2022-08-19T06:08:33;33.35;;;16.48;;
32649;SDS011;19055;51.064;3.712;2022-08-19T06:13:42;27.98;;;16.85;;
32649;SDS011;19055;51.064;3.712;2022-08-19T06:16:10;27.25;;;16.63;;
32649;SDS011;19055;51.064;3.712;2022-08-19T06:18:36;27.85;;;16.33;;
32649;SDS011;19055;51.064;3.712;2022-08-19T06:21:01;24.02;;;15.45;;
32649;SDS011;19055;51.064;3.712;2022-08-19T06:23:29;24.02;;;15.30;;
32649;SDS011;19055;51.064;3.712;2022-08-19T06:25:55;25.33;;;15.82;;
32649;SDS011;19055;51.064;3.712;2022-08-19T06:28:21;26.60;;;16.17;;
32649;SDS011;19055;51.064;3.712;2022-08-19T06:30:48;22.95;;;15.88;;
32649;SDS011;19055;51.064;3.712;2022-08-19T06:33:16;25.63;;;16.02;;
32649;SDS011;19055;51.064;3.712;2022-08-19T06:35:42;20.95;;;14.75;;
32649;SDS011;19055;51.064;3.712;2022-08-19T06:38:08;24.83;;;14.80;;
32649;SDS011;19055;51.064;3.712;2022-08-19T06:40:34;23.52;;;13.95;;
32649;SDS011;19055;51.064;3.712;2022-08-19T06:43:02;21.25;;;13.30;;
32649;SDS011;19055;51.064;3.712;2022-08-19T06:45:28;19.10;;;12.40;;
32649;SDS011;19055;51.064;3.712;2022-08-19T06:47:55;19.35;;;11.85;;
32649;SDS011;19055;51.064;3.712;2022-08-19T06:50:24;18.85;;;12.23;;
32649;SDS011;19055;51.064;3.712;2022-08-19T06:52:50;20.10;;;11.20;;
32649;SDS011;19055;51.064;3.712;2022-08-19T06:55:16;17.33;;;11.23;;
32649;SDS011;19055;51.064;3.712;2022-08-19T06:57:42;16.92;;;11.65;;
32649;SDS011;19055;51.064;3.712;2022-08-19T07:00:11;18.00;;;11.20;;
32649;SDS011;19055;51.064;3.712;2022-08-19T07:02:40;14.20;;;11.02;;
32649;SDS011;19055;51.064;3.712;2022-08-19T07:05:09;18.02;;;11.02;;
32649;SDS011;19055;51.064;3.712;2022-08-19T07:07:35;16.65;;;9.90;;
32649;SDS011;19055;51.064;3.712;2022-08-19T07:10:01;18.17;;;10.90;;
32649;SDS011;19055;51.064;3.712;2022-08-19T07:12:29;17.27;;;10.85;;
32649;SDS011;19055;51.064;3.712;2022-08-19T07:14:59;15.80;;;10.77;;
32649;SDS011;19055;51.064;3.712;2022-08-19T07:17:25;17.23;;;11.30;;
32649;SDS011;19055;51.064;3.712;2022-08-19T07:19:51;19.05;;;11.27;;
32649;SDS011;19055;51.064;3.712;2022-08-19T07:22:17;16.60;;;11.18;;
32649;SDS011;19055;51.064;3.712;2022-08-19T07:24:45;18.40;;;10.98;;
32649;SDS011;19055;51.064;3.712;2022-08-19T07:27:13;17.23;;;12.00;;
32649;SDS011;19055;51.064;3.712;2022-08-19T07:29:39;18.52;;;12.43;;
32649;SDS011;19055;51.064;3.712;2022-08-19T07:32:05;17.70;;;13.23;;
32649;SDS011;19055;51.064;3.712;2022-08-19T07:34:32;14.52;;;12.38;;
32649;SDS011;19055;51.064;3.712;2022-08-19T07:37:02;20.23;;;14.15;;
32649;SDS011;19055;51.064;3.712;2022-08-19T07:39:32;20.90;;;13.85;;
32649;SDS011;19055;51.064;3.712;2022-08-19T07:42:01;20.33;;;14.07;;
32649;SDS011;19055;51.064;3.712;2022-08-19T07:44:31;20.38;;;14.43;;
32649;SDS011;19055;51.064;3.712;2022-08-19T07:46:58;19.40;;;14.15;;
32649;SDS011;19055;51.064;3.712;2022-08-19T07:49:25;22.35;;;14.75;;
32649;SDS011;19055;51.064;3.712;2022-08-19T07:52:02;18.75;;;14.40;;
32649;SDS011;19055;51.064;3.712;2022-08-19T07:54:32;18.98;;;14.43;;
32649;SDS011;19055;51.064;3.712;2022-08-19T07:56:59;22.15;;;15.38;;
32649;SDS011;19055;51.064;3.712;2022-08-19T07:59:26;21.58;;;15.25;;
32649;SDS011;19055;51.064;3.712;2022-08-19T08:01:53;20.38;;;15.68;;
32649;SDS011;19055;51.064;3.712;2022-08-19T08:04:20;19.92;;;14.57;;
32649;SDS011;19055;51.064;3.712;2022-08-19T08:07:05;23.38;;;13.73;;
32649;SDS011;19055;51.064;3.712;2022-08-19T08:09:50;20.52;;;13.98;;
32649;SDS011;19055;51.064;3.712;2022-08-19T08:12:25;21.45;;;13.63;;
32649;SDS011;19055;51.064;3.712;2022-08-19T08:14:55;18.42;;;13.93;;
32649;SDS011;19055;51.064;3.712;2022-08-19T08:17:24;19.60;;;13.48;;
32649;SDS011;19055;51.064;3.712;2022-08-19T08:19:53;20.35;;;13.20;;
32649;SDS011;19055;51.064;3.712;2022-08-19T08:22:19;18.33;;;13.73;;
32649;SDS011;19055;51.064;3.712;2022-08-19T08:25:06;19.35;;;13.55;;
32649;SDS011;19055;51.064;3.712;2022-08-19T08:27:44;20.25;;;12.68;;
32649;SDS011;19055;51.064;3.712;2022-08-19T08:30:16;20.45;;;14.70;;
32649;SDS011;19055;51.064;3.712;2022-08-19T08:32:43;24.10;;;14.13;;
32649;SDS011;19055;51.064;3.712;2022-08-19T08:35:10;17.40;;;13.68;;
32649;SDS011;19055;51.064;3.712;2022-08-19T08:37:38;18.15;;;13.45;;
32649;SDS011;19055;51.064;3.712;2022-08-19T08:40:05;17.13;;;12.90;;
32649;SDS011;19055;51.064;3.712;2022-08-19T08:43:37;22.30;;;14.18;;
32649;SDS011;19055;51.064;3.712;2022-08-19T08:46:01;16.33;;;12.90;;
32649;SDS011;19055;51.064;3.712;2022-08-19T08:48:32;20.48;;;14.18;;
32649;SDS011;19055;51.064;3.712;2022-08-19T08:50:59;21.77;;;14.07;;
32649;SDS011;19055;51.064;3.712;2022-08-19T08:53:30;18.27;;;14.13;;
32649;SDS011;19055;51.064;3.712;2022-08-19T08:55:57;20.95;;;13.18;;
32649;SDS011;19055;51.064;3.712;2022-08-19T08:58:27;15.93;;;13.88;;
32649;SDS011;19055;51.064;3.712;2022-08-19T09:00:58;15.60;;;12.07;;
32649;SDS011;19055;51.064;3.712;2022-08-19T09:03:25;15.18;;;10.95;;
32649;SDS011;19055;51.064;3.712;2022-08-19T09:17:03;14.90;;;8.75;;
32649;SDS011;19055;51.064;3.712;2022-08-19T09:19:34;11.75;;;8.40;;
32649;SDS011;19055;51.064;3.712;2022-08-19T09:22:01;11.63;;;8.75;;
32649;SDS011;19055;51.064;3.712;2022-08-19T09:24:27;88.88;;;19.25;;
32649;SDS011;19055;51.064;3.712;2022-08-19T09:26:52;11.10;;;8.07;;
32649;SDS011;19055;51.064;3.712;2022-08-19T09:29:18;12.55;;;7.00;;
32649;SDS011;19055;51.064;3.712;2022-08-19T09:31:45;12.57;;;6.43;;
32649;SDS011;19055;51.064;3.712;2022-08-19T09:34:11;16.23;;;6.55;;
32649;SDS011;19055;51.064;3.712;2022-08-19T09:36:37;8.23;;;5.15;;
32649;SDS011;19055;51.064;3.712;2022-08-19T09:39:04;6.72;;;5.68;;
32649;SDS011;19055;51.064;3.712;2022-08-19T09:41:31;8.68;;;4.68;;
32649;SDS011;19055;51.064;3.712;2022-08-19T09:43:57;17.77;;;6.03;;
32649;SDS011;19055;51.064;3.712;2022-08-19T09:46:25;9.95;;;4.07;;
32649;SDS011;19055;51.064;3.712;2022-08-19T09:48:52;4.95;;;3.47;;
32649;SDS011;19055;51.064;3.712;2022-08-19T09:51:20;7.30;;;3.83;;
32649;SDS011;19055;51.064;3.712;2022-08-19T09:53:48;5.40;;;2.80;;
32649;SDS011;19055;51.064;3.712;2022-08-19T09:56:15;6.65;;;3.28;;
32649;SDS011;19055;51.064;3.712;2022-08-19T09:58:43;7.75;;;3.08;;
32649;SDS011;19055;51.064;3.712;2022-08-19T10:01:21;4.63;;;2.60;;
32649;SDS011;19055;51.064;3.712;2022-08-19T10:03:50;3.65;;;2.78;;
32649;SDS011;19055;51.064;3.712;2022-08-19T10:06:18;5.13;;;2.50;;
32649;SDS011;19055;51.064;3.712;2022-08-19T10:08:46;31.27;;;18.70;;
32649;SDS011;19055;51.064;3.712;2022-08-19T10:11:12;5.00;;;3.55;;
32649;SDS011;19055;51.064;3.712;2022-08-19T10:13:41;4.18;;;3.35;;
32649;SDS011;19055;51.064;3.712;2022-08-19T10:16:09;3.78;;;3.08;;
32649;SDS011;19055;51.064;3.712;2022-08-19T10:18:39;6.78;;;2.72;;
32649;SDS011;19055;51.064;3.712;2022-08-19T10:21:13;5.75;;;4.10;;
32649;SDS011;19055;51.064;3.712;2022-08-19T10:23:46;3.92;;;3.53;;
32649;SDS011;19055;51.064;3.712;2022-08-19T10:26:14;10.70;;;3.13;;
32649;SDS011;19055;51.064;3.712;2022-08-19T10:28:45;8.07;;;3.45;;
32649;SDS011;19055;51.064;3.712;2022-08-19T10:31:15;7.40;;;3.25;;
32649;SDS011;19055;51.064;3.712;2022-08-19T10:33:47;8.57;;;2.70;;
32649;SDS011;19055;51.064;3.712;2022-08-19T10:36:22;3.92;;;3.17;;
32649;SDS011;19055;51.064;3.712;2022-08-19T10:38:52;5.65;;;3.85;;
32649;SDS011;19055;51.064;3.712;2022-08-19T10:41:25;9.70;;;3.67;;
32649;SDS011;19055;51.064;3.712;2022-08-19T10:43:53;5.15;;;3.67;;
32649;SDS011;19055;51.064;3.712;2022-08-19T10:46:23;4.32;;;3.45;;
32649;SDS011;19055;51.064;3.712;2022-08-19T10:48:51;7.95;;;3.92;;
32649;SDS011;19055;51.064;3.712;2022-08-19T10:51:18;5.32;;;4.30;;
32649;SDS011;19055;51.064;3.712;2022-08-19T10:54:03;7.78;;;4.32;;
32649;SDS011;19055;51.064;3.712;2022-08-19T10:56:30;6.43;;;4.70;;
32649;SDS011;19055;51.064;3.712;2022-08-19T10:59:16;5.90;;;4.35;;
32649;SDS011;19055;51.064;3.712;2022-08-19T11:01:47;8.27;;;5.82;;
32649;SDS011;19055;51.064;3.712;2022-08-19T11:04:14;6.88;;;5.55;;
32649;SDS011;19055;51.064;3.712;2022-08-19T11:06:43;6.95;;;5.72;;
32649;SDS011;19055;51.064;3.712;2022-08-19T11:09:22;8.10;;;5.20;;
32649;SDS011;19055;51.064;3.712;2022-08-19T11:11:50;8.77;;;5.90;;
32649;SDS011;19055;51.064;3.712;2022-08-19T11:14:18;6.10;;;5.18;;
32649;SDS011;19055;51.064;3.712;2022-08-19T11:16:47;7.07;;;5.30;;
32649;SDS011;19055;51.064;3.712;2022-08-19T11:19:14;5.63;;;5.07;;
32649;SDS011;19055;51.064;3.712;2022-08-19T11:21:44;9.07;;;5.05;;
32649;SDS011;19055;51.064;3.712;2022-08-19T11:24:13;8.73;;;6.40;;
32649;SDS011;19055;51.064;3.712;2022-08-19T11:26:41;6.30;;;5.45;;
32649;SDS011;19055;51.064;3.712;2022-08-19T11:29:08;5.90;;;5.30;;
32649;SDS011;19055;51.064;3.712;2022-08-19T11:31:42;9.00;;;4.43;;
32649;SDS011;19055;51.064;3.712;2022-08-19T11:34:11;6.20;;;4.03;;
32649;SDS011;19055;51.064;3.712;2022-08-19T11:36:42;6.05;;;4.05;;
32649;SDS011;19055;51.064;3.712;2022-08-19T11:39:11;4.85;;;3.67;;
32649;SDS011;19055;51.064;3.712;2022-08-19T11:41:39;3.72;;;3.05;;
32649;SDS011;19055;51.064;3.712;2022-08-19T11:44:05;4.78;;;3.20;;
32649;SDS011;19055;51.064;3.712;2022-08-19T11:46:34;4.28;;;2.80;;
32649;SDS011;19055;51.064;3.712;2022-08-19T11:49:02;5.22;;;3.53;;
32649;SDS011;19055;51.064;3.712;2022-08-19T11:51:30;7.22;;;3.40;;
32649;SDS011;19055;51.064;3.712;2022-08-19T11:53:57;2.85;;;2.47;;
32649;SDS011;19055;51.064;3.712;2022-08-19T11:56:24;4.68;;;2.42;;
32649;SDS011;19055;51.064;3.712;2022-08-19T11:58:51;6.40;;;2.55;;
32649;SDS011;19055;51.064;3.712;2022-08-19T12:01:18;2.70;;;1.52;;
32649;SDS011;19055;51.064;3.712;2022-08-19T12:03:48;2.75;;;2.17;;
32649;SDS011;19055;51.064;3.712;2022-08-19T12:06:17;2.88;;;2.25;;
32649;SDS011;19055;51.064;3.712;2022-08-19T12:08:45;4.88;;;2.38;;
32649;SDS011;19055;51.064;3.712;2022-08-19T12:11:12;6.57;;;2.70;;
32649;SDS011;19055;51.064;3.712;2022-08-19T12:13:39;6.20;;;3.72;;
32649;SDS011;19055;51.064;3.712;2022-08-19T12:16:07;4.70;;;4.18;;
32649;SDS011;19055;51.064;3.712;2022-08-19T12:18:41;5.53;;;3.85;;
32649;SDS011;19055;51.064;3.712;2022-08-19T12:21:11;4.10;;;3.70;;
32649;SDS011;19055;51.064;3.712;2022-08-19T12:23:40;4.22;;;3.83;;
32649;SDS011;19055;51.064;3.712;2022-08-19T12:26:10;5.57;;;3.45;;
32649;SDS011;19055;51.064;3.712;2022-08-19T12:28:36;4.18;;;3.30;;
32649;SDS011;19055;51.064;3.712;2022-08-19T12:31:03;3.90;;;3.40;;
32649;SDS011;19055;51.064;3.712;2022-08-19T12:33:29;5.40;;;3.33;;
32649;SDS011;19055;51.064;3.712;2022-08-19T12:36:00;4.85;;;3.90;;
32649;SDS011;19055;51.064;3.712;2022-08-19T12:38:28;4.30;;;2.88;;
32649;SDS011;19055;51.064;3.712;2022-08-19T12:40:55;6.35;;;4.22;;
32649;SDS011;19055;51.064;3.712;2022-08-19T12:43:21;5.75;;;3.13;;
32649;SDS011;19055;51.064;3.712;2022-08-19T12:45:47;6.15;;;3.10;;
32649;SDS011;19055;51.064;3.712;2022-08-19T12:48:13;5.53;;;3.13;;
32649;SDS011;19055;51.064;3.712;2022-08-19T12:50:41;3.20;;;2.15;;
32649;SDS011;19055;51.064;3.712;2022-08-19T12:53:10;3.47;;;2.63;;
32649;SDS011;19055;51.064;3.712;2022-08-19T12:55:36;3.17;;;1.77;;
32649;SDS011;19055;51.064;3.712;2022-08-19T12:58:02;3.88;;;1.90;;
32649;SDS011;19055;51.064;3.712;2022-08-19T13:00:28;2.47;;;1.70;;
32649;SDS011;19055;51.064;3.712;2022-08-19T13:02:56;2.08;;;1.60;;
32649;SDS011;19055;51.064;3.712;2022-08-19T13:05:23;5.82;;;1.88;;
32649;SDS011;19055;51.064;3.712;2022-08-19T13:07:51;3.47;;;1.63;;
32649;SDS011;19055;51.064;3.712;2022-08-19T13:10:20;4.20;;;2.10;;
32649;SDS011;19055;51.064;3.712;2022-08-19T13:12:48;2.88;;;1.75;;
32649;SDS011;19055;51.064;3.712;2022-08-19T13:15:17;3.42;;;1.70;;
32649;SDS011;19055;51.064;3.712;2022-08-19T13:17:48;10.10;;;2.20;;
32649;SDS011;19055;51.064;3.712;2022-08-19T13:20:18;7.85;;;2.97;;
32649;SDS011;19055;51.064;3.712;2022-08-19T13:22:45;8.50;;;3.45;;
32649;SDS011;19055;51.064;3.712;2022-08-19T13:25:13;11.85;;;4.30;;
32649;SDS011;19055;51.064;3.712;2022-08-19T13:27:42;6.40;;;3.42;;
32649;SDS011;19055;51.064;3.712;2022-08-19T13:30:09;6.57;;;2.97;;
32649;SDS011;19055;51.064;3.712;2022-08-19T13:32:55;7.88;;;2.85;;
32649;SDS011;19055;51.064;3.712;2022-08-19T13:35:37;3.92;;;1.88;;
32649;SDS011;19055;51.064;3.712;2022-08-19T13:38:08;4.35;;;2.05;;
32649;SDS011;19055;51.064;3.712;2022-08-19T13:40:35;5.55;;;2.13;;
32649;SDS011;19055;51.064;3.712;2022-08-19T13:43:02;6.88;;;1.80;;
32649;SDS011;19055;51.064;3.712;2022-08-19T13:45:31;3.58;;;1.40;;
32649;SDS011;19055;51.064;3.712;2022-08-19T13:47:59;4.00;;;1.45;;
32649;SDS011;19055;51.064;3.712;2022-08-19T13:50:29;3.15;;;1.88;;
32649;SDS011;19055;51.064;3.712;2022-08-19T13:52:56;4.47;;;1.48;;
32649;SDS011;19055;51.064;3.712;2022-08-19T13:55:22;6.20;;;2.75;;
32649;SDS011;19055;51.064;3.712;2022-08-19T13:57:50;5.93;;;2.03;;
32649;SDS011;19055;51.064;3.712;2022-08-19T14:00:17;2.88;;;1.63;;
32649;SDS011;19055;51.064;3.712;2022-08-19T14:02:44;4.10;;;2.03;;
32649;SDS011;19055;51.064;3.712;2022-08-19T14:05:12;4.88;;;2.55;;
32649;SDS011;19055;51.064;3.712;2022-08-19T14:07:39;4.43;;;2.70;;
32649;SDS011;19055;51.064;3.712;2022-08-19T14:10:06;4.93;;;3.70;;
32649;SDS011;19055;51.064;3.712;2022-08-19T14:12:34;7.63;;;3.60;;
32649;SDS011;19055;51.064;3.712;2022-08-19T14:15:00;4.30;;;3.20;;
32649;SDS011;19055;51.064;3.712;2022-08-19T14:17:28;8.73;;;4.32;;
32649;SDS011;19055;51.064;3.712;2022-08-19T14:20:01;10.10;;;6.00;;
32649;SDS011;19055;51.064;3.712;2022-08-19T14:22:32;8.57;;;5.22;;
32649;SDS011;19055;51.064;3.712;2022-08-19T14:25:04;7.38;;;3.97;;
32649;SDS011;19055;51.064;3.712;2022-08-19T14:27:35;8.38;;;4.65;;
32649;SDS011;19055;51.064;3.712;2022-08-19T14:30:06;6.93;;;4.05;;
32649;SDS011;19055;51.064;3.712;2022-08-19T14:32:34;7.10;;;4.55;;
32649;SDS011;19055;51.064;3.712;2022-08-19T14:35:03;9.30;;;5.38;;
32649;SDS011;19055;51.064;3.712;2022-08-19T14:37:32;7.45;;;3.92;;
32649;SDS011;19055;51.064;3.712;2022-08-19T14:39:59;6.75;;;4.00;;
32649;SDS011;19055;51.064;3.712;2022-08-19T14:42:25;7.57;;;4.70;;
32649;SDS011;19055;51.064;3.712;2022-08-19T14:44:51;7.65;;;4.80;;
32649;SDS011;19055;51.064;3.712;2022-08-19T14:47:16;7.82;;;4.93;;
32649;SDS011;19055;51.064;3.712;2022-08-19T14:49:42;11.70;;;6.07;;
32649;SDS011;19055;51.064;3.712;2022-08-19T14:52:08;7.63;;;4.75;;
32649;SDS011;19055;51.064;3.712;2022-08-19T14:54:34;8.70;;;5.05;;
32649;SDS011;19055;51.064;3.712;2022-08-19T14:57:00;5.60;;;4.95;;
32649;SDS011;19055;51.064;3.712;2022-08-19T14:59:26;8.10;;;4.90;;